createdAt,value
2022-11-25T00:01:13.288Z,5.10
2022-11-25T00:03:41.108Z,4.33
2022-11-25T00:06:15.798Z,4.13
2022-11-25T00:08:44.363Z,5.10
2022-11-25T00:11:12.379Z,4.20
2022-11-25T00:13:40.056Z,4.07
2022-11-25T00:16:17.629Z,4.50
2022-11-25T00:18:45.888Z,4.07
2022-11-25T00:21:14.637Z,4.83
2022-11-25T00:23:41.130Z,4.23
2022-11-25T00:26:09.992Z,4.67
2022-11-25T00:28:36.482Z,4.60
2022-11-25T00:31:11.991Z,4.93
2022-11-25T00:33:39.349Z,5.17
2022-11-25T00:36:07.768Z,4.03
2022-11-25T00:38:34.272Z,4.10
2022-11-25T00:41:19.283Z,4.27
2022-11-25T00:44:04.311Z,4.00
2022-11-25T00:46:30.698Z,3.60
2022-11-25T00:48:57.195Z,3.60
2022-11-25T00:51:23.581Z,3.43
2022-11-25T00:53:53.506Z,3.50
2022-11-25T00:56:23.940Z,3.73
2022-11-25T00:58:50.397Z,4.03
2022-11-25T01:01:16.924Z,3.77
2022-11-25T01:03:43.314Z,4.13
2022-11-25T01:06:11.166Z,3.73
2022-11-25T01:08:38.547Z,3.20
2022-11-25T01:11:11.866Z,3.57
2022-11-25T01:13:38.283Z,3.53
2022-11-25T01:16:06.732Z,3.77
2022-11-25T01:18:34.534Z,3.23
2022-11-25T01:21:08.282Z,3.87
2022-11-25T01:23:35.391Z,3.70
2022-11-25T01:26:12.579Z,3.43
2022-11-25T01:28:39.643Z,3.10
2022-11-25T01:31:17.042Z,3.70
2022-11-25T01:33:44.312Z,3.00
2022-11-25T01:36:17.979Z,2.63
2022-11-25T01:38:45.410Z,3.23
2022-11-25T01:41:14.097Z,3.20
2022-11-25T01:43:41.368Z,2.90
2022-11-25T01:46:19.379Z,2.70
2022-11-25T01:48:55.051Z,2.97
2022-11-25T01:51:26.286Z,2.80
2022-11-25T01:53:55.323Z,2.50
2022-11-25T01:56:21.922Z,2.77
2022-11-25T01:58:49.964Z,2.67
2022-11-25T02:01:18.031Z,3.07
2022-11-25T02:03:48.277Z,2.77
2022-11-25T02:06:25.807Z,2.80
2022-11-25T02:08:56.307Z,2.70
2022-11-25T02:11:26.689Z,2.77
2022-11-25T02:13:53.610Z,2.53
2022-11-25T02:16:20.099Z,3.43
2022-11-25T02:18:46.528Z,2.40
2022-11-25T02:21:17.955Z,2.80
2022-11-25T02:24:02.029Z,2.80
2022-11-25T02:26:28.784Z,2.93
2022-11-25T02:28:55.350Z,3.20
2022-11-25T02:31:22.649Z,2.60
2022-11-25T02:33:49.231Z,2.90
2022-11-25T02:36:22.003Z,3.53
2022-11-25T02:38:53.959Z,3.33
2022-11-25T02:41:50.930Z,3.30
2022-11-25T02:44:17.631Z,2.80
2022-11-25T02:46:44.125Z,3.07
2022-11-25T02:49:10.989Z,2.80
2022-11-25T02:51:39.907Z,3.47
2022-11-25T02:54:06.551Z,2.93
2022-11-25T02:56:35.033Z,3.10
2022-11-25T02:59:02.594Z,2.80
2022-11-25T03:01:31.202Z,3.10
2022-11-25T03:03:58.598Z,2.93
2022-11-25T03:06:25.113Z,2.53
2022-11-25T03:08:51.721Z,2.13
2022-11-25T03:11:18.158Z,2.30
2022-11-25T03:13:44.499Z,2.07
2022-11-25T03:16:11.383Z,2.67
2022-11-25T03:18:38.116Z,2.30
2022-11-25T03:21:04.631Z,2.70
2022-11-25T03:23:31.081Z,2.70
2022-11-25T03:25:57.519Z,2.90
2022-11-25T03:28:24.036Z,2.30
2022-11-25T03:30:50.505Z,2.10
2022-11-25T03:33:16.928Z,2.60
2022-11-25T03:35:43.382Z,2.47
2022-11-25T03:38:09.789Z,2.10
2022-11-25T03:40:36.163Z,2.40
2022-11-25T03:43:02.763Z,2.23
2022-11-25T03:45:29.356Z,2.37
2022-11-25T03:47:55.956Z,2.83
2022-11-25T03:50:22.335Z,2.50
2022-11-25T03:52:48.706Z,2.43
2022-11-25T03:55:15.176Z,2.87
2022-11-25T03:57:41.635Z,2.37
2022-11-25T04:00:09.439Z,2.60
2022-11-25T04:02:35.941Z,2.40
2022-11-25T04:05:03.183Z,2.23
2022-11-25T04:07:29.779Z,2.67
2022-11-25T04:09:56.450Z,2.73
2022-11-25T04:12:41.420Z,2.90
2022-11-25T04:15:08.384Z,2.93
2022-11-25T04:17:34.829Z,2.90
2022-11-25T04:20:01.250Z,2.53
2022-11-25T04:22:27.637Z,2.80
2022-11-25T04:24:54.018Z,2.73
2022-11-25T04:27:20.694Z,2.53
2022-11-25T04:29:47.155Z,2.50
2022-11-25T04:32:13.962Z,3.23
2022-11-25T04:34:40.684Z,2.73
2022-11-25T04:37:07.209Z,2.70
2022-11-25T04:39:33.621Z,2.70
2022-11-25T04:42:18.962Z,2.50
2022-11-25T04:45:01.102Z,2.40
2022-11-25T04:47:32.036Z,2.50
2022-11-25T04:49:58.964Z,2.53
2022-11-25T04:52:25.945Z,2.70
2022-11-25T04:54:52.410Z,2.50
2022-11-25T04:57:19.399Z,2.50
2022-11-25T04:59:46.209Z,2.37
2022-11-25T05:02:22.543Z,2.90
2022-11-25T05:04:51.018Z,2.80
2022-11-25T05:07:20.212Z,2.33
2022-11-25T05:09:47.707Z,2.90
2022-11-25T05:12:17.950Z,2.73
2022-11-25T05:14:44.961Z,2.83
2022-11-25T05:17:15.378Z,2.07
2022-11-25T05:19:41.850Z,2.57
2022-11-25T05:22:13.027Z,2.87
2022-11-25T05:24:39.422Z,2.53
2022-11-25T05:27:06.391Z,2.37
2022-11-25T05:29:32.753Z,2.27
2022-11-25T05:31:59.115Z,3.20
2022-11-25T05:34:25.525Z,2.73
2022-11-25T05:36:52.062Z,2.67
2022-11-25T05:39:18.954Z,3.13
2022-11-25T05:41:45.476Z,2.60
2022-11-25T05:44:11.912Z,2.53
2022-11-25T05:46:38.522Z,3.17
2022-11-25T05:49:05.038Z,2.87
2022-11-25T05:51:31.741Z,3.07
2022-11-25T05:53:58.331Z,3.00
2022-11-25T05:56:24.891Z,3.00
2022-11-25T05:58:51.312Z,3.13
2022-11-25T06:01:17.786Z,2.87
2022-11-25T06:03:44.319Z,3.27
2022-11-25T06:06:11.355Z,3.27
2022-11-25T06:08:38.943Z,2.47
2022-11-25T06:11:11.967Z,2.60
2022-11-25T06:13:39.474Z,3.00
2022-11-25T06:16:11.930Z,3.10
2022-11-25T06:18:39.022Z,2.90
2022-11-25T06:21:06.732Z,3.20
2022-11-25T06:23:34.049Z,3.40
2022-11-25T06:26:14.864Z,3.10
2022-11-25T06:28:41.350Z,4.03
2022-11-25T06:31:16.566Z,4.10
2022-11-25T06:33:46.031Z,3.67
2022-11-25T06:36:17.013Z,3.13
2022-11-25T06:38:45.166Z,2.90
2022-11-25T06:41:11.764Z,3.00
2022-11-25T06:43:38.216Z,3.17
2022-11-25T06:46:08.957Z,3.90
2022-11-25T06:48:36.505Z,3.30
2022-11-25T06:51:08.463Z,3.63
2022-11-25T06:53:35.438Z,5.17
2022-11-25T06:56:14.095Z,4.63
2022-11-25T06:58:41.824Z,4.73
2022-11-25T07:01:13.117Z,3.77
2022-11-25T07:03:39.640Z,4.10
2022-11-25T07:06:06.486Z,3.63
2022-11-25T07:08:34.288Z,3.47
2022-11-25T07:11:05.918Z,3.03
2022-11-25T07:13:33.067Z,3.63
2022-11-25T07:16:04.436Z,3.17
2022-11-25T07:18:36.775Z,3.00
2022-11-25T07:21:11.623Z,3.90
2022-11-25T07:23:39.040Z,3.07
2022-11-25T07:26:17.202Z,3.43
2022-11-25T07:28:44.506Z,3.13
2022-11-25T07:31:32.669Z,3.87
2022-11-25T07:34:05.920Z,3.73
2022-11-25T07:36:34.250Z,3.53
2022-11-25T07:39:04.148Z,3.47
2022-11-25T07:41:30.770Z,3.20
2022-11-25T07:44:02.634Z,3.07
2022-11-25T07:46:38.822Z,2.93
2022-11-25T07:49:07.777Z,3.90
2022-11-25T07:51:40.346Z,3.77
2022-11-25T07:54:09.843Z,3.37
2022-11-25T07:56:38.629Z,3.40
2022-11-25T07:59:06.374Z,3.27
2022-11-25T08:01:32.880Z,3.20
2022-11-25T08:03:59.431Z,4.63
2022-11-25T08:06:28.297Z,4.60
2022-11-25T08:08:56.442Z,4.60
2022-11-25T08:11:29.124Z,4.57
2022-11-25T08:13:56.472Z,5.53
2022-11-25T08:16:26.305Z,6.83
2022-11-25T08:18:54.499Z,9.40
2022-11-25T08:21:21.087Z,9.37
2022-11-25T08:23:48.871Z,7.53
2022-11-25T08:26:21.787Z,4.87
2022-11-25T08:28:49.342Z,6.07
2022-11-25T08:31:22.045Z,3.73
2022-11-25T08:33:49.767Z,3.50
2022-11-25T08:36:17.137Z,4.23
2022-11-25T08:38:45.838Z,3.43
2022-11-25T08:41:15.506Z,3.40
2022-11-25T08:43:42.034Z,3.60
2022-11-25T08:46:14.627Z,2.90
2022-11-25T08:48:42.003Z,3.30
2022-11-25T08:51:15.008Z,3.03
2022-11-25T08:53:42.605Z,2.80
2022-11-25T08:56:09.185Z,2.40
2022-11-25T08:58:36.291Z,2.90
2022-11-25T09:01:04.152Z,2.80
2022-11-25T09:03:36.359Z,3.33
2022-11-25T09:06:03.383Z,3.13
2022-11-25T09:08:31.205Z,3.83
2022-11-25T09:10:58.580Z,4.47
2022-11-25T09:13:25.665Z,3.77
2022-11-25T09:15:52.621Z,4.30
2022-11-25T09:18:20.328Z,3.60
2022-11-25T09:20:47.206Z,3.70
2022-11-25T09:23:14.259Z,3.27
2022-11-25T09:25:40.919Z,3.37
2022-11-25T09:28:07.398Z,2.50
2022-11-25T09:30:34.880Z,2.37
2022-11-25T09:33:01.235Z,2.43
2022-11-25T09:35:27.794Z,2.50
2022-11-25T09:37:54.226Z,2.43
2022-11-25T09:40:58.503Z,2.80
2022-11-25T09:44:22.251Z,2.40
2022-11-25T09:46:54.623Z,2.60
2022-11-25T09:49:44.951Z,2.63
2022-11-25T09:52:16.442Z,2.27
2022-11-25T09:54:55.018Z,2.20
2022-11-25T09:57:55.040Z,2.60
2022-11-25T10:00:54.771Z,2.93
2022-11-25T10:03:21.157Z,2.73
2022-11-25T10:06:26.345Z,2.27
2022-11-25T10:08:58.292Z,2.70
2022-11-25T10:11:46.640Z,3.03
2022-11-25T10:14:36.013Z,2.53
2022-11-25T10:17:15.153Z,2.90
2022-11-25T10:20:22.479Z,2.70
2022-11-25T10:22:54.259Z,2.90
2022-11-25T10:25:26.806Z,2.97
2022-11-25T10:28:10.424Z,2.70
2022-11-25T10:30:50.948Z,2.53
2022-11-25T10:33:24.701Z,2.63
2022-11-25T10:36:08.059Z,3.00
2022-11-25T10:38:59.556Z,2.60
2022-11-25T10:41:33.767Z,3.73
2022-11-25T10:44:00.198Z,3.27
2022-11-25T10:46:57.405Z,2.67
2022-11-25T10:49:38.244Z,3.40
2022-11-25T10:52:12.007Z,3.73
2022-11-25T10:54:38.451Z,3.60
2022-11-25T10:57:17.675Z,3.60
2022-11-25T10:59:55.702Z,3.67
2022-11-25T11:02:30.927Z,2.80
2022-11-25T11:05:07.727Z,3.17
2022-11-25T11:07:39.644Z,3.67
2022-11-25T11:10:09.189Z,3.20
2022-11-25T11:12:35.608Z,2.80
2022-11-25T11:15:20.527Z,3.20
2022-11-25T11:17:48.404Z,2.47
2022-11-25T11:20:27.747Z,3.07
2022-11-25T11:23:08.347Z,2.53
2022-11-25T11:25:37.919Z,5.03
2022-11-25T11:28:25.533Z,3.20
2022-11-25T11:31:15.453Z,5.17
2022-11-25T11:33:48.354Z,5.03
2022-11-25T11:36:23.981Z,3.83
2022-11-25T11:38:54.973Z,4.30
2022-11-25T11:41:40.180Z,4.87
2022-11-25T11:44:06.685Z,4.10
2022-11-25T11:47:04.141Z,4.77
2022-11-25T11:49:46.650Z,3.67
2022-11-25T11:52:24.182Z,4.43
2022-11-25T11:54:57.981Z,4.13
2022-11-25T11:57:44.335Z,4.57
2022-11-25T12:00:16.494Z,4.20
2022-11-25T12:03:01.142Z,5.43
2022-11-25T12:05:32.105Z,4.63
2022-11-25T12:08:09.893Z,4.27
2022-11-25T12:10:45.673Z,4.80
2022-11-25T12:13:32.551Z,4.17
2022-11-25T12:16:10.451Z,4.90
2022-11-25T12:18:50.717Z,4.33
2022-11-25T12:22:00.582Z,4.60
2022-11-25T12:24:47.902Z,4.30
2022-11-25T12:27:23.178Z,4.10
2022-11-25T12:29:55.833Z,4.30
2022-11-25T12:32:31.077Z,4.13
2022-11-25T12:35:20.625Z,3.30
2022-11-25T12:37:56.388Z,3.10
2022-11-25T12:40:34.484Z,3.73
2022-11-25T12:43:34.084Z,2.70
2022-11-25T12:46:13.081Z,4.03
2022-11-25T12:48:41.944Z,3.57
2022-11-25T12:51:31.507Z,4.30
2022-11-25T12:54:09.354Z,3.87
2022-11-25T12:57:12.804Z,3.93
2022-11-25T13:03:21.758Z,3.70
2022-11-25T13:06:23.766Z,4.10
2022-11-25T13:09:17.984Z,3.40
2022-11-25T13:12:11.794Z,4.33
2022-11-25T13:15:12.414Z,3.17
2022-11-25T13:17:45.800Z,4.83
2022-11-25T13:20:27.638Z,5.87
2022-11-25T13:23:07.963Z,6.50
2022-11-25T13:25:35.987Z,6.17
2022-11-25T13:28:05.131Z,6.03
2022-11-25T13:30:35.940Z,5.27
2022-11-25T13:33:11.632Z,6.00
2022-11-25T13:35:50.842Z,6.23
2022-11-25T13:38:29.470Z,7.83
2022-11-25T13:41:01.900Z,7.07
2022-11-25T13:43:28.829Z,6.80
2022-11-25T13:45:55.932Z,7.03
2022-11-25T13:48:26.931Z,6.53
2022-11-25T13:51:23.474Z,6.50
2022-11-25T13:53:53.774Z,6.13
2022-11-25T13:56:30.263Z,6.57
2022-11-25T13:59:11.986Z,5.50
2022-11-25T14:01:39.129Z,6.07
2022-11-25T14:04:11.643Z,5.97
2022-11-25T14:06:55.056Z,5.73
2022-11-25T14:09:30.252Z,6.13
2022-11-25T14:12:21.029Z,5.83
2022-11-25T14:15:04.326Z,5.33
2022-11-25T14:17:41.804Z,5.90
2022-11-25T14:20:33.779Z,5.90
2022-11-25T14:23:30.800Z,4.50
2022-11-25T14:26:11.718Z,4.83
2022-11-25T14:28:52.096Z,3.90
2022-11-25T14:31:24.551Z,4.47
2022-11-25T14:34:01.309Z,3.87
2022-11-25T14:36:36.466Z,3.80
2022-11-25T14:39:06.188Z,3.97
2022-11-25T14:41:38.570Z,3.30
2022-11-25T14:44:12.576Z,3.90
2022-11-25T14:46:52.714Z,4.00
2022-11-25T14:49:44.921Z,3.70
2022-11-25T14:52:06.325Z,3.67
2022-11-25T14:54:32.862Z,3.80
2022-11-25T14:56:59.824Z,2.87
2022-11-25T14:59:29.168Z,4.17
2022-11-25T15:01:55.775Z,2.87
2022-11-25T15:04:25.047Z,2.87
2022-11-25T15:06:55.094Z,2.53
2022-11-25T15:09:25.814Z,2.43
2022-11-25T15:12:01.722Z,2.30
2022-11-25T15:14:31.795Z,2.60
2022-11-25T15:16:59.284Z,2.47
2022-11-25T15:19:33.735Z,2.27
2022-11-25T15:27:46.699Z,1.70
2022-11-25T15:30:25.503Z,2.10
2022-11-25T15:32:53.226Z,2.10
2022-11-25T15:35:26.050Z,1.83
2022-11-25T15:37:54.296Z,1.53
2022-11-25T15:40:32.569Z,1.73
2022-11-25T15:43:02.357Z,2.43
2022-11-25T15:45:44.040Z,2.20
2022-11-25T15:48:28.590Z,3.33
2022-11-25T15:51:05.104Z,2.97
2022-11-25T15:53:37.093Z,2.37
2022-11-25T15:56:07.016Z,2.43
2022-11-25T15:58:33.723Z,1.83
2022-11-25T16:01:04.766Z,1.80
2022-11-25T16:03:32.441Z,2.13
2022-11-25T16:06:00.382Z,1.70
2022-11-25T16:08:33.475Z,1.90
2022-11-25T16:11:20.169Z,2.00
2022-11-25T16:13:48.245Z,1.83
2022-11-25T16:16:24.702Z,2.10
2022-11-25T16:19:13.080Z,2.10
2022-11-25T16:22:05.807Z,1.80
2022-11-25T16:24:40.454Z,2.07
2022-11-25T16:27:28.125Z,1.40
2022-11-25T16:30:11.650Z,2.13
2022-11-25T16:32:38.036Z,1.80
2022-11-25T16:35:21.082Z,2.47
2022-11-25T16:37:49.375Z,2.00
2022-11-25T16:40:18.016Z,2.87
2022-11-25T16:42:48.352Z,2.43
2022-11-25T16:45:21.725Z,2.50
2022-11-25T16:47:48.391Z,2.57
2022-11-25T16:50:16.447Z,3.20
2022-11-25T16:52:43.075Z,3.60
2022-11-25T16:55:09.972Z,3.20
2022-11-25T16:57:37.947Z,2.97
2022-11-25T17:00:08.740Z,3.07
2022-11-25T17:02:35.594Z,2.53
2022-11-25T17:05:25.685Z,2.93
2022-11-25T17:07:52.613Z,3.23
2022-11-25T17:10:20.729Z,3.27
2022-11-25T17:12:48.167Z,3.33
2022-11-25T17:15:21.122Z,3.13
2022-11-25T17:17:48.682Z,3.60
2022-11-25T17:20:17.746Z,3.40
2022-11-25T17:22:44.357Z,2.60
2022-11-25T17:25:14.186Z,2.10
2022-11-25T17:27:42.018Z,2.57
2022-11-25T17:30:17.753Z,2.57
2022-11-25T17:33:01.478Z,2.67
2022-11-25T17:35:40.325Z,3.10
2022-11-25T17:38:20.972Z,3.03
2022-11-25T17:40:54.725Z,2.67
2022-11-25T17:43:34.747Z,2.53
2022-11-25T17:46:37.135Z,2.83
2022-11-25T17:49:16.845Z,2.80
2022-11-25T17:51:57.401Z,2.90
2022-11-25T17:54:31.285Z,3.60
2022-11-25T17:57:06.115Z,3.53
2022-11-25T18:02:35.457Z,2.43
2022-11-25T18:05:06.319Z,2.87
2022-11-25T18:07:40.836Z,2.57
2022-11-25T18:10:17.259Z,2.73
2022-11-25T18:13:05.663Z,3.07
2022-11-25T18:15:45.825Z,3.07
2022-11-25T18:18:42.213Z,2.60
2022-11-25T18:21:37.371Z,2.70
2022-11-25T18:24:24.485Z,2.37
2022-11-25T18:27:04.051Z,3.20
2022-11-25T18:30:06.499Z,2.90
2022-11-25T18:32:26.242Z,3.77
2022-11-25T18:34:53.024Z,2.60
2022-11-25T18:37:19.693Z,3.07
2022-11-25T18:39:46.583Z,3.00
2022-11-25T18:42:24.492Z,2.77
2022-11-25T18:44:51.671Z,3.00
2022-11-25T18:47:18.173Z,2.87
2022-11-25T18:49:44.607Z,2.87
2022-11-25T18:52:11.160Z,3.13
2022-11-25T18:54:37.872Z,3.73
2022-11-25T18:57:05.063Z,4.10
2022-11-25T18:59:34.624Z,3.70
2022-11-25T19:02:12.159Z,3.97
2022-11-25T19:04:40.314Z,3.47
2022-11-25T19:07:08.926Z,3.57
2022-11-25T19:09:41.977Z,4.10
2022-11-25T19:12:23.281Z,3.33
2022-11-25T19:15:40.778Z,4.30
2022-11-25T19:18:18.270Z,3.50
2022-11-25T19:20:46.907Z,4.10
2022-11-25T19:23:28.692Z,3.10
2022-11-25T19:26:04.885Z,3.23
2022-11-25T19:28:59.997Z,3.20
2022-11-25T19:31:40.356Z,3.50
2022-11-25T19:34:50.541Z,3.97
2022-11-25T19:37:20.485Z,3.80
2022-11-25T19:39:51.354Z,4.43
2022-11-25T19:42:18.431Z,3.53
2022-11-25T19:44:46.232Z,3.17
2022-11-25T19:47:24.956Z,3.77
2022-11-25T19:49:55.943Z,2.83
2022-11-25T19:52:33.163Z,3.47
2022-11-25T19:54:59.726Z,3.10
2022-11-25T19:57:27.587Z,3.73
2022-11-25T19:59:54.137Z,2.90
2022-11-25T20:02:24.273Z,2.43
2022-11-25T20:04:54.190Z,3.37
2022-11-25T20:07:22.070Z,2.53
2022-11-25T20:09:51.577Z,3.37
2022-11-25T20:12:27.634Z,3.00
2022-11-25T20:14:54.301Z,2.80
2022-11-25T20:17:28.631Z,3.10
2022-11-25T20:20:02.305Z,3.10
2022-11-25T20:22:36.090Z,3.10
2022-11-25T20:25:06.050Z,3.20
2022-11-25T20:27:34.187Z,2.90
2022-11-25T20:30:00.698Z,3.10
2022-11-25T20:32:30.821Z,2.80
2022-11-25T20:34:58.693Z,3.10
2022-11-25T20:37:28.043Z,3.03
2022-11-25T20:39:57.717Z,3.30
2022-11-25T20:42:25.360Z,2.90
2022-11-25T20:44:56.045Z,2.73
2022-11-25T20:47:26.532Z,3.17
2022-11-25T20:49:53.686Z,3.20
2022-11-25T20:52:34.032Z,3.37
2022-11-25T20:55:02.849Z,3.30
2022-11-25T20:57:29.328Z,2.60
2022-11-25T20:59:55.868Z,3.73
2022-11-25T21:02:22.395Z,3.17
2022-11-25T21:04:48.941Z,3.73
2022-11-25T21:07:15.914Z,3.63
2022-11-25T21:09:43.089Z,3.43
2022-11-25T21:12:19.128Z,3.43
2022-11-25T21:14:46.629Z,3.00
2022-11-25T21:17:13.260Z,3.50
2022-11-25T21:19:39.762Z,3.20
2022-11-25T21:22:06.333Z,2.90
2022-11-25T21:24:40.428Z,3.27
2022-11-25T21:27:14.494Z,2.53
2022-11-25T21:29:43.109Z,3.60
2022-11-25T21:32:26.224Z,2.97
2022-11-25T21:34:53.584Z,2.90
2022-11-25T21:37:35.917Z,2.53
2022-11-25T21:40:04.196Z,2.80
2022-11-25T21:42:32.143Z,2.87
2022-11-25T21:44:58.704Z,2.93
2022-11-25T21:47:28.766Z,3.23
2022-11-25T21:49:55.311Z,2.63
2022-11-25T21:52:21.918Z,2.40
2022-11-25T21:54:48.453Z,2.70
2022-11-25T21:57:17.053Z,2.70
2022-11-25T21:59:45.571Z,2.50
2022-11-25T22:02:21.381Z,2.97
2022-11-25T22:04:48.425Z,2.43
2022-11-25T22:07:14.977Z,2.67
2022-11-25T22:09:41.987Z,2.70
2022-11-25T22:12:28.430Z,2.70
2022-11-25T22:14:56.566Z,2.83
2022-11-25T22:17:23.434Z,2.60
2022-11-25T22:19:50.331Z,3.27
2022-11-25T22:22:17.478Z,3.90
2022-11-25T22:24:44.396Z,3.53
2022-11-25T22:27:36.567Z,3.50
2022-11-25T22:30:04.814Z,3.30
2022-11-25T22:32:31.431Z,3.30
2022-11-25T22:34:58.075Z,3.10
2022-11-25T22:37:25.005Z,3.10
2022-11-25T22:39:51.915Z,2.90
2022-11-25T22:42:30.909Z,3.10
2022-11-25T22:45:00.129Z,3.90
2022-11-25T22:47:32.889Z,3.00
2022-11-25T22:50:03.429Z,2.87
2022-11-25T22:52:32.865Z,3.07
2022-11-25T22:55:13.960Z,2.90
2022-11-25T22:57:41.194Z,3.60
2022-11-25T23:00:10.660Z,3.23
2022-11-25T23:02:37.539Z,3.43
2022-11-25T23:05:14.972Z,3.27
2022-11-25T23:07:41.416Z,3.87
2022-11-25T23:10:16.292Z,3.27
2022-11-25T23:12:42.672Z,3.40
2022-11-25T23:15:14.065Z,3.03
2022-11-25T23:17:46.623Z,3.70
2022-11-25T23:20:17.234Z,3.57
2022-11-25T23:22:43.658Z,3.77
2022-11-25T23:25:16.642Z,3.43
2022-11-25T23:27:43.080Z,3.53
2022-11-25T23:30:15.316Z,3.47
2022-11-25T23:32:41.989Z,3.73
2022-11-25T23:35:14.664Z,4.10
2022-11-25T23:37:41.354Z,4.50
2022-11-25T23:40:17.538Z,4.10
2022-11-25T23:42:43.915Z,4.33
2022-11-25T23:45:14.747Z,4.50
2022-11-25T23:47:42.497Z,4.00
2022-11-25T23:50:26.502Z,4.00
2022-11-25T23:52:58.313Z,4.03
2022-11-25T23:55:30.066Z,4.33
2022-11-25T23:57:56.769Z,4.10
